Key Colony Beach, Florida
Current Conditions -  °F | °C
As of 1:53 PM on Tuesday 21 Oct 2014 (Local Time) from KMTH Reporting Station
Light Rain Light Rain  
Wind Chill: 74°   Ceiling: 9000
Heat Index: 74°   Visibility: 5mi
Dew Point: 74°   Wind: 3mph
Humidity: 100%   Direction: 320°NW
Pressure: 29.96"   Gusts: NA
Location:  24.72°N, 81.02°W
Report Text: KMTH 211753Z AUTO 32003KT 5SM -RA BR SCT070 OVC090 23/23 A2996 RMK AO2 SLP146 P0014 60039 T02330233 10261 20233 56008
Loading
Personal Weather Stations






























Interactive Weather Map
Tropical Storm Tracking
New forecast layout! Learn more

10-Day Weather Forecast

Advertisements
Track Severe Weather on mobile